| time (UTC) | temp F | wind direction | speed knots | gust knots | rain 1hr in | rain 24hr in | rain mn in | humidity % | barometer mb |
| 20260506171058 | 65 | 291 | 2.6 | 7.0 | 0.00 | 0.22 | 0.22 | 57 | 1007.5 |
| 20260506170557 | 65 | 324 | 3.5 | 7.0 | 0.00 | 0.22 | 0.22 | 57 | 1007.5 |
| 20260506170109 | 64 | 311 | 1.7 | 6.1 | 0.00 | 0.22 | 0.22 | 53 | 1007.5 |
| 20260506165556 | 64 | 286 | 2.6 | 6.1 | 0.00 | 0.22 | 0.22 | 52 | 1007.7 |
| 20260506165056 | 64 | 315 | 2.6 | 7.8 | 0.00 | 0.22 | 0.22 | 52 | 1007.7 |
| 20260506164554 | 64 | 298 | 1.7 | 7.0 | 0.00 | 0.22 | 0.22 | 48 | 1007.7 |
| 20260506164053 | 64 | 301 | 2.6 | 8.7 | 0.00 | 0.22 | 0.22 | 44 | 1007.7 |
| 20260506163551 | 63 | 307 | 2.6 | 8.7 | 0.00 | 0.22 | 0.22 | 40 | 1007.6 |
| 20260506163056 | 63 | 304 | 2.6 | 7.8 | 0.00 | 0.22 | 0.22 | 41 | 1007.7 |
| 20260506162548 | 63 | 295 | 4.3 | 7.0 | 0.00 | 0.22 | 0.22 | 40 | 1007.8 |
| 20260506162047 | 63 | 291 | 2.6 | 7.0 | 0.00 | 0.22 | 0.22 | 34 | 1007.9 |
| 20260506161546 | 63 | 302 | 3.5 | 6.1 | 0.00 | 0.22 | 0.22 | 32 | 1007.8 |
| 20260506161047 | 63 | 289 | 2.6 | 6.1 | 0.00 | 0.22 | 0.22 | 26 | 1007.8 |
| 20260506160543 | 63 | 309 | 1.7 | 5.2 | 0.00 | 0.22 | 0.22 | 23 | 1007.7 |
| 20260506160043 | 62 | 302 | 1.7 | 5.2 | 0.00 | 0.22 | 0.22 | 18 | 1007.8 |
| 20260506155542 | 62 | 293 | 2.6 | 6.1 | 0.00 | 0.22 | 0.22 | 18 | 1007.8 |
| 20260506155041 | 62 | 299 | 1.7 | 6.1 | 0.00 | 0.22 | 0.22 | 18 | 1007.8 |
| 20260506154547 | 62 | 283 | 1.7 | 8.7 | 0.00 | 0.22 | 0.22 | 15 | 1008.0 |
| 20260506154036 | 62 | 305 | 2.6 | 7.8 | 0.00 | 0.22 | 0.22 | 11 | 1007.9 |
| 20260506153534 | 62 | 297 | 2.6 | 6.1 | 0.00 | 0.22 | 0.22 | 7 | 1007.8 |
| 20260506153032 | 61 | 313 | 1.7 | 6.1 | 0.01 | 0.22 | 0.22 | 5 | 1007.8 |
| 20260506152530 | 61 | 295 | 2.6 | 6.1 | 0.01 | 0.22 | 0.22 | 1 | 1008.0 |
| 20260506152028 | 61 | 297 | 2.6 | 6.1 | 0.01 | 0.22 | 0.22 | 1 | 1007.9 |
| 20260506151528 | 61 | 308 | 0.9 | 4.3 | 0.02 | 0.22 | 0.22 | 1 | 1007.9 |
| 20260506151027 | 61 | 305 | 0.9 | 4.3 | 0.03 | 0.22 | 0.22 | 1 | 1008.0 |
| 20260506150524 | 60 | 286 | 1.7 | 5.2 | 0.03 | 0.22 | 0.22 | 1 | 1008.2 |
| 20260506150022 | 60 | 281 | 1.7 | 5.2 | 0.03 | 0.22 | 0.22 | 1 | 1008.2 |
| 20260506145520 | 60 | 305 | 2.6 | 5.2 | 0.03 | 0.22 | 0.22 | 1 | 1008.2 |
| 20260506145020 | 60 | 302 | 0.9 | 3.5 | 0.04 | 0.22 | 0.22 | 1 | 1007.9 |
| 20260506144518 | 60 | 316 | 0.0 | 3.5 | 0.04 | 0.22 | 0.22 | 1 | 1008.1 |
| 20260506144018 | 60 | 309 | 1.7 | 3.5 | 0.05 | 0.22 | 0.22 | 1 | 1008.4 |
| 20260506143515 | 60 | 310 | 1.7 | 3.5 | 0.04 | 0.21 | 0.21 | 1 | 1008.5 |
| 20260506143022 | 60 | 318 | 0.9 | 2.6 | 0.05 | 0.21 | 0.21 | 1 | 1008.6 |
| 20260506142514 | 60 | 305 | 0.9 | 4.3 | 0.06 | 0.21 | 0.21 | 1 | 1008.5 |
| 20260506142010 | 60 | 293 | 0.9 | 5.2 | 0.07 | 0.21 | 0.21 | 1 | 1008.7 |
| 20260506141509 | 60 | 288 | 1.7 | 5.2 | 0.06 | 0.20 | 0.20 | 1 | 1008.7 |
| 20260506141008 | 60 | 297 | 1.7 | 5.2 | 0.07 | 0.19 | 0.19 | 1 | 1008.5 |
| 20260506140506 | 60 | 286 | 1.7 | 5.2 | 0.09 | 0.19 | 0.19 | 1 | 1008.5 |
| 20260506140013 | 60 | 303 | 2.6 | 5.2 | 0.10 | 0.19 | 0.19 | 1 | 1008.4 |
| 20260506135502 | 60 | 298 | 0.9 | 5.2 | 0.11 | 0.19 | 0.19 | 1 | 1008.3 |
| 20260506135000 | 60 | 293 | 2.6 | 5.2 | 0.10 | 0.18 | 0.18 | 1 | 1008.3 |
| 20260506134559 | 60 | 296 | 1.7 | 5.2 | 0.10 | 0.18 | 0.18 | 1 | 1008.4 |
| 20260506134057 | 60 | 305 | 0.9 | 4.3 | 0.09 | 0.17 | 0.17 | 1 | 1008.4 |
| 20260506133556 | 60 | 314 | 0.9 | 5.2 | 0.10 | 0.17 | 0.17 | 1 | 1008.4 |
| 20260506133114 | 60 | 293 | 0.9 | 5.2 | 0.09 | 0.16 | 0.16 | 1 | 1008.5 |
| 20260506132553 | 61 | 294 | 0.0 | 3.5 | 0.08 | 0.15 | 0.15 | 1 | 1008.6 |
| 20260506132053 | 61 | 302 | 0.9 | 3.5 | 0.08 | 0.14 | 0.14 | 1 | 1008.7 |
| 20260506131552 | 61 | 296 | 0.0 | 3.5 | 0.08 | 0.14 | 0.14 | 4 | 1008.6 |
| 20260506131050 | 61 | 298 | 0.0 | 3.5 | 0.06 | 0.12 | 0.12 | 8 | 1008.6 |
| 20260506130548 | 61 | 290 | 0.9 | 3.5 | 0.06 | 0.11 | 0.11 | 13 | 1009.1 |
| 20260506130047 | 61 | 290 | 1.7 | 3.5 | 0.05 | 0.09 | 0.09 | 15 | 1009.1 |
| 20260506125546 | 61 | 304 | 0.9 | 2.6 | 0.05 | 0.08 | 0.08 | 16 | 1009.1 |
| 20260506125048 | 61 | 306 | 0.9 | 2.6 | 0.06 | 0.08 | 0.08 | 14 | 1008.9 |
| 20260506124546 | 61 | 293 | 0.0 | 2.6 | 0.06 | 0.08 | 0.08 | 16 | 1008.7 |
| 20260506124045 | 61 | 295 | 0.9 | 2.6 | 0.07 | 0.08 | 0.08 | 19 | 1008.6 |
| 20260506123545 | 61 | 287 | 0.9 | 2.6 | 0.06 | 0.07 | 0.07 | 19 | 1008.3 |
| 20260506123045 | 61 | 312 | 0.0 | 1.7 | 0.07 | 0.07 | 0.07 | 19 | 1008.2 |
| 20260506122544 | 61 | 297 | 0.0 | 1.7 | 0.07 | 0.07 | 0.07 | 21 | 1008.2 |
| 20260506122043 | 61 | 295 | 0.0 | 2.6 | 0.06 | 0.06 | 0.06 | 23 | 1008.4 |
| 20260506121541 | 61 | 314 | 0.0 | 2.6 | 0.06 | 0.06 | 0.06 | 29 | 1008.4 |
| 20260506121040 | 62 | 307 | 0.0 | 4.3 | 0.05 | 0.05 | 0.05 | 36 | 1008.5 |
| 20260506120539 | 62 | 296 | 0.0 | 4.3 | 0.05 | 0.05 | 0.05 | 44 | 1008.6 |
| 20260506120037 | 62 | 323 | 0.9 | 3.5 | 0.04 | 0.04 | 0.04 | 49 | 1008.7 |
| 20260506115536 | 62 | 146 | 0.9 | 3.5 | 0.03 | 0.03 | 0.03 | 55 | 1008.9 |
| 20260506115034 | 63 | 306 | 0.0 | 3.5 | 0.02 | 0.02 | 0.02 | 58 | 1008.9 |
| 20260506114539 | 63 | 308 | 0.9 | 3.5 | 0.02 | 0.02 | 0.02 | 63 | 1008.9 |
| 20260506114032 | 64 | 307 | 0.9 | 3.5 | 0.01 | 0.01 | 0.01 | 66 | 1008.8 |
| 20260506113531 | 64 | 307 | 1.7 | 4.3 | 0.00 | 0.00 | 0.00 | 69 | 1008.7 |
| 20260506113029 | 64 | 283 | 0.9 | 4.3 | 0.00 | 0.00 | 0.00 | 71 | 1008.7 |
| 20260506112529 | 64 | 306 | 0.9 | 3.5 | 0.00 | 0.00 | 0.00 | 71 | 1008.8 |
| 20260506112027 | 65 | 307 | 0.9 | 3.5 | 0.00 | 0.00 | 0.00 | 72 | 1008.7 |
| 20260506111527 | 65 | 303 | 0.9 | 3.5 | 0.00 | 0.00 | 0.00 | 71 | 1008.5 |
| 20260506111026 | 65 | 324 | 2.6 | 5.2 | 0.00 | 0.00 | 0.00 | 71 | 1008.4 |
| 20260506110526 | 65 | 283 | 0.9 | 5.2 | 0.00 | 0.00 | 0.00 | 71 | 1008.3 |
| 20260506110026 | 65 | 309 | 0.9 | 6.1 | 0.00 | 0.00 | 0.00 | 71 | 1008.3 |
| 20260506105526 | 65 | 307 | 1.7 | 7.0 | 0.00 | 0.00 | 0.00 | 71 | 1008.1 |
| 20260506105026 | 65 | 317 | 1.7 | 7.0 | 0.00 | 0.00 | 0.00 | 71 | 1008.1 |
| 20260506104551 | 65 | 318 | 0.9 | 5.2 | 0.00 | 0.00 | 0.00 | 71 | 1008.0 |
| 20260506104026 | 65 | 301 | 2.6 | 5.2 | 0.00 | 0.00 | 0.00 | 71 | 1008.0 |
| 20260506103523 | 66 | 277 | 1.7 | 5.2 | 0.00 | 0.00 | 0.00 | 70 | 1008.0 |
| 20260506103023 | 66 | 307 | 2.6 | 7.0 | 0.00 | 0.00 | 0.00 | 69 | 1007.8 |
| 20260506102523 | 66 | 309 | 3.5 | 7.0 | 0.00 | 0.00 | 0.00 | 69 | 1007.7 |
| 20260506102022 | 66 | 300 | 1.7 | 6.1 | 0.00 | 0.00 | 0.00 | 70 | 1007.7 |
| 20260506101520 | 66 | 293 | 2.6 | 7.8 | 0.00 | 0.00 | 0.00 | 69 | 1007.6 |
| 20260506101020 | 66 | 242 | 2.6 | 7.8 | 0.00 | 0.00 | 0.00 | 68 | 1007.7 |
| 20260506100524 | 66 | 297 | 0.9 | 6.1 | 0.00 | 0.00 | 0.00 | 68 | 1007.6 |
| 20260506100020 | 66 | 305 | 1.7 | 6.1 | 0.00 | 0.00 | 0.00 | 68 | 1007.6 |
| 20260506095519 | 66 | 335 | 0.9 | 5.2 | 0.00 | 0.00 | 0.00 | 68 | 1007.7 |
| 20260506095018 | 66 | 305 | 1.7 | 5.2 | 0.00 | 0.00 | 0.00 | 67 | 1007.7 |
| 20260506094517 | 67 | 292 | 1.7 | 4.3 | 0.00 | 0.00 | 0.00 | 67 | 1007.8 |
| 20260506094019 | 67 | 288 | 1.7 | 5.2 | 0.00 | 0.00 | 0.00 | 66 | 1007.7 |
| 20260506093515 | 67 | 329 | 1.7 | 5.2 | 0.00 | 0.00 | 0.00 | 66 | 1007.8 |
| 20260506093015 | 67 | 308 | 1.7 | 6.1 | 0.00 | 0.00 | 0.00 | 66 | 1007.8 |
| 20260506092515 | 67 | 293 | 2.6 | 6.1 | 0.00 | 0.00 | 0.00 | 66 | 1007.8 |
| 20260506092014 | 67 | 302 | 2.6 | 6.1 | 0.00 | 0.00 | 0.00 | 66 | 1007.9 |
| 20260506091514 | 67 | 305 | 1.7 | 7.0 | 0.00 | 0.00 | 0.00 | 65 | 1008.0 |
| 20260506091015 | 67 | 296 | 1.7 | 7.0 | 0.00 | 0.00 | 0.00 | 65 | 1008.0 |
| 20260506090516 | 67 | 300 | 1.7 | 6.1 | 0.00 | 0.00 | 0.00 | 65 | 1008.0 |
| 20260506090011 | 67 | 326 | 1.7 | 6.1 | 0.00 | 0.00 | 0.00 | 65 | 1007.9 |
| 20260506085514 | 67 | 297 | 1.7 | 7.0 | 0.00 | 0.00 | 0.00 | 64 | 1007.8 |
| 20260506085011 | 67 | 297 | 1.7 | 7.0 | 0.00 | 0.00 | 0.00 | 64 | 1007.8 |
| 20260506084510 | 67 | 297 | 1.7 | 6.1 | 0.00 | 0.00 | 0.00 | 64 | 1007.9 |
| 20260506084014 | 68 | 318 | 1.7 | 6.1 | 0.00 | 0.00 | 0.00 | 64 | 1007.9 |
| 20260506083509 | 68 | 308 | 2.6 | 5.2 | 0.00 | 0.00 | 0.00 | 63 | 1008.0 |
| 20260506083016 | 68 | 307 | 2.6 | 7.0 | 0.00 | 0.00 | 0.00 | 63 | 1008.0 |
| 20260506082506 | 68 | 286 | 3.5 | 7.8 | 0.00 | 0.00 | 0.00 | 63 | 1008.0 |
| 20260506082005 | 68 | 299 | 2.6 | 8.7 | 0.00 | 0.00 | 0.00 | 62 | 1008.0 |
| 20260506081509 | 68 | 323 | 3.5 | 8.7 | 0.00 | 0.00 | 0.00 | 62 | 1008.0 |
| 20260506081004 | 68 | 276 | 2.6 | 7.0 | 0.00 | 0.00 | 0.00 | 62 | 1008.0 |
| 20260506080505 | 68 | 324 | 2.6 | 9.6 | 0.00 | 0.00 | 0.00 | 62 | 1007.9 |
| 20260506073505 | 69 | 318 | 2.6 | 7.0 | 0.00 | 0.00 | 0.00 | 60 | 1007.8 |
| 20260506073004 | 69 | 302 | 2.6 | 7.0 | 0.00 | 0.00 | 0.00 | 60 | 1007.8 |
| 20260506072501 | 69 | 303 | 2.6 | 5.2 | 0.00 | 0.00 | 0.00 | 60 | 1007.9 |
| 20260506072102 | 69 | 319 | 2.6 | 5.2 | 0.00 | 0.00 | 0.00 | 60 | 1008.0 |
| 20260506071624 | 69 | 305 | 2.6 | 6.1 | 0.00 | 0.00 | 0.00 | 59 | 1008.0 |
| 20260506071057 | 69 | 306 | 2.6 | 6.1 | 0.00 | 0.00 | 0.00 | 59 | 1008.0 |
| 20260506070558 | 69 | 320 | 2.6 | 6.1 | 0.00 | 0.00 | 0.00 | 59 | 1008.1 |
| 20260506062049 | 70 | 300 | 1.7 | 5.2 | 0.00 | 0.00 | 0.00 | 56 | 1008.6 |
| 20260506061548 | 70 | 308 | 0.9 | 5.2 | 0.00 | 0.00 | 0.00 | 55 | 1008.7 |
| 20260506061047 | 70 | 293 | 1.7 | 5.2 | 0.00 | 0.00 | 0.00 | 55 | 1008.7 |
| 20260506060548 | 71 | 309 | 0.9 | 5.2 | 0.00 | 0.00 | 0.00 | 55 | 1008.6 |
| 20260506051042 | 71 | 319 | 0.9 | 4.3 | 0.00 | 0.00 | 0.00 | 53 | 1008.9 |
| 20260506050540 | 71 | 112 | 0.9 | 4.3 | 0.00 | 0.00 | 0.00 | 52 | 1009.0 |
| 20260506045039 | 72 | 300 | 1.7 | 4.3 | 0.00 | 0.00 | 0.00 | 51 | 1009.2 |
| 20260506044539 | 72 | 320 | 1.7 | 4.3 | 0.00 | 0.00 | 0.00 | 51 | 1009.1 |
| 20260506044040 | 72 | 347 | 1.7 | 4.3 | 0.00 | 0.00 | 0.00 | 50 | 1009.1 |
| 20260506043537 | 72 | 302 | 1.7 | 4.3 | 0.00 | 0.00 | 0.00 | 50 | 1009.2 |
| 20260506043047 | 72 | 292 | 1.7 | 4.3 | 0.00 | 0.00 | 0.00 | 50 | 1009.1 |
| 20260506042536 | 72 | 304 | 1.7 | 5.2 | 0.00 | 0.00 | 0.00 | 49 | 1009.1 |
| 20260506042037 | 72 | 312 | 2.6 | 5.2 | 0.00 | 0.00 | 0.00 | 49 | 1009.1 |
| 20260506041538 | 72 | 327 | 1.7 | 5.2 | 0.00 | 0.00 | 0.00 | 49 | 1009.2 |
| 20260506041034 | 72 | 300 | 1.7 | 6.1 | 0.00 | 0.00 | 0.00 | 49 | 1009.2 |
| 20260506040533 | 73 | 309 | 2.6 | 6.1 | 0.00 | 0.00 | 0.00 | 48 | 1009.0 |
| 20260506040044 | 72 | 297 | 1.7 | 4.3 | 0.00 | 0.00 | 0.00 | 48 | 1009.1 |
| 20260506035533 | 73 | 312 | 0.9 | 7.0 | 0.00 | 0.00 | 0.00 | 48 | 1009.0 |
| 20260506035032 | 73 | 306 | 1.7 | 7.0 | 0.00 | 0.00 | 0.00 | 48 | 1008.9 |
| 20260506034532 | 73 | 295 | 3.5 | 6.1 | 0.00 | 0.00 | 0.00 | 47 | 1008.9 |
| 20260506034032 | 72 | 298 | 2.6 | 5.2 | 0.00 | 0.00 | 0.00 | 47 | 1008.9 |
| 20260506033531 | 72 | 321 | 1.7 | 4.3 | 0.00 | 0.00 | 0.00 | 47 | 1008.8 |
| 20260506033031 | 72 | 300 | 1.7 | 5.2 | 0.00 | 0.00 | 0.00 | 47 | 1008.8 |
| 20260506032531 | 72 | 297 | 1.7 | 5.2 | 0.00 | 0.00 | 0.00 | 47 | 1008.9 |
| 20260506032031 | 72 | 307 | 0.9 | 3.5 | 0.00 | 0.00 | 0.00 | 46 | 1008.8 |
| 20260506031531 | 72 | 319 | 0.9 | 5.2 | 0.00 | 0.00 | 0.00 | 46 | 1009.0 |
| 20260506031031 | 72 | 302 | 0.9 | 3.5 | 0.00 | 0.00 | 0.00 | 46 | 1009.0 |
| 20260506030532 | 73 | 290 | 0.9 | 3.5 | 0.00 | 0.00 | 0.00 | 45 | 1009.0 |
| 20260506030030 | 73 | 296 | 0.9 | 3.5 | 0.00 | 0.00 | 0.00 | 44 | 1008.9 |
| 20260506025530 | 73 | 316 | 0.9 | 3.5 | 0.00 | 0.00 | 0.00 | 44 | 1008.9 |
| 20260506025033 | 73 | 287 | 1.7 | 3.5 | 0.00 | 0.00 | 0.00 | 43 | 1008.9 |
| 20260506024540 | 73 | 304 | 0.9 | 6.1 | 0.00 | 0.00 | 0.00 | 42 | 1009.0 |
| 20260506024031 | 73 | 310 | 0.9 | 6.1 | 0.00 | 0.00 | 0.00 | 42 | 1008.9 |
| 20260506023530 | 73 | 295 | 1.7 | 7.0 | 0.00 | 0.00 | 0.00 | 41 | 1008.9 |
| 20260506023028 | 74 | 333 | 0.0 | 7.0 | 0.00 | 0.00 | 0.00 | 41 | 1008.8 |
| 20260506022529 | 74 | 301 | 0.0 | 7.0 | 0.00 | 0.00 | 0.00 | 40 | 1008.9 |
| 20260506022030 | 74 | 283 | 0.9 | 7.0 | 0.00 | 0.00 | 0.00 | 40 | 1008.9 |
| 20260506021543 | 74 | 299 | 0.9 | 5.2 | 0.00 | 0.00 | 0.00 | 40 | 1008.9 |
| 20260506021028 | 74 | 290 | 2.6 | 7.8 | 0.00 | 0.00 | 0.00 | 40 | 1008.9 |
| 20260506020531 | 74 | 303 | 1.7 | 6.1 | 0.00 | 0.00 | 0.00 | 40 | 1009.0 |
| 20260506020029 | 74 | 307 | 0.9 | 3.5 | 0.00 | 0.00 | 0.00 | 39 | 1009.0 |
| 20260506015529 | 74 | 314 | 0.0 | 3.5 | 0.00 | 0.00 | 0.00 | 39 | 1008.9 |
| 20260506015029 | 74 | 321 | 0.0 | 2.6 | 0.00 | 0.00 | 0.00 | 39 | 1008.8 |
| 20260506014528 | 75 | 331 | 0.9 | 2.6 | 0.00 | 0.00 | 0.00 | 38 | 1008.8 |
| 20260506014027 | 75 | 306 | 0.9 | 3.5 | 0.00 | 0.00 | 0.00 | 38 | 1008.8 |
| 20260506013527 | 75 | 305 | 0.9 | 3.5 | 0.00 | 0.00 | 0.00 | 37 | 1008.7 |
| 20260506013027 | 75 | 312 | 0.9 | 3.5 | 0.00 | 0.00 | 0.00 | 37 | 1008.7 |
| 20260506012527 | 75 | 313 | 0.0 | 4.3 | 0.00 | 0.00 | 0.00 | 36 | 1008.6 |
| 20260506012028 | 76 | 312 | 0.9 | 4.3 | 0.00 | 0.00 | 0.00 | 36 | 1008.5 |
| 20260506011529 | 76 | 300 | 1.7 | 4.3 | 0.00 | 0.00 | 0.00 | 35 | 1008.5 |
| 20260506011030 | 76 | 302 | 0.9 | 4.3 | 0.00 | 0.00 | 0.00 | 35 | 1008.4 |
| 20260506010527 | 76 | 335 | 1.7 | 4.3 | 0.00 | 0.00 | 0.00 | 35 | 1008.4 |
| 20260506010031 | 76 | 323 | 0.9 | 4.3 | 0.00 | 0.00 | 0.00 | 34 | 1008.4 |
| 20260506005525 | 76 | 293 | 0.9 | 5.2 | 0.00 | 0.00 | 0.00 | 34 | 1008.3 |
| 20260506005029 | 77 | 153 | 1.7 | 7.0 | 0.00 | 0.00 | 0.00 | 33 | 1008.2 |
| 20260506004524 | 77 | 332 | 1.7 | 7.0 | 0.00 | 0.00 | 0.00 | 33 | 1008.1 |
| 20260506004025 | 77 | 319 | 1.7 | 7.0 | 0.00 | 0.00 | 0.00 | 32 | 1008.1 |
| 20260506003525 | 77 | 302 | 2.6 | 7.0 | 0.00 | 0.00 | 0.00 | 32 | 1008.0 |
| 20260506003025 | 77 | 316 | 2.6 | 5.2 | 0.00 | 0.00 | 0.00 | 32 | 1008.0 |
| 20260506002528 | 77 | 305 | 1.7 | 5.2 | 0.00 | 0.00 | 0.00 | 31 | 1007.9 |
| 20260506002024 | 78 | 302 | 2.6 | 5.2 | 0.00 | 0.00 | 0.00 | 31 | 1007.9 |
| 20260506001524 | 78 | 303 | 1.7 | 6.1 | 0.00 | 0.00 | 0.00 | 30 | 1007.9 |
| 20260506001024 | 78 | 329 | 1.7 | 6.1 | 0.00 | 0.00 | 0.00 | 30 | 1007.8 |
| 20260506000524 | 78 | 299 | 2.6 | 5.2 | 0.00 | 0.00 | 0.00 | 29 | 1007.8 |
| 20260506000023 | 78 | 297 | 2.6 | 5.2 | 0.00 | 0.00 | 0.00 | 29 | 1007.8 |
| 20260505235523 | 78 | 300 | 2.6 | 7.0 | 0.00 | 0.00 | 0.00 | 28 | 1007.8 |
| 20260505235023 | 79 | 293 | 3.5 | 7.0 | 0.00 | 0.00 | 0.00 | 27 | 1007.7 |
| 20260505234523 | 79 | 308 | 2.6 | 8.7 | 0.00 | 0.00 | 0.00 | 27 | 1007.7 |
| 20260505234022 | 79 | 312 | 5.2 | 8.7 | 0.00 | 0.00 | 0.00 | 26 | 1007.6 |
| 20260505233523 | 79 | 296 | 4.3 | 8.7 | 0.00 | 0.00 | 0.00 | 26 | 1007.7 |
| 20260505233022 | 79 | 321 | 4.3 | 8.7 | 0.00 | 0.00 | 0.00 | 26 | 1007.7 |
| 20260505232522 | 80 | 314 | 2.6 | 6.1 | 0.00 | 0.00 | 0.00 | 28 | 1007.7 |
| 20260505232023 | 80 | 305 | 2.6 | 6.1 | 0.00 | 0.00 | 0.00 | 28 | 1007.6 |
| 20260505231527 | 80 | 302 | 2.6 | 7.0 | 0.00 | 0.00 | 0.00 | 28 | 1007.6 |
| 20260505231021 | 80 | 289 | 2.6 | 7.0 | 0.00 | 0.00 | 0.00 | 28 | 1007.6 |
| 20260505230521 | 80 | 291 | 2.6 | 6.1 | 0.00 | 0.00 | 0.00 | 28 | 1007.6 |
| 20260505230023 | 80 | 305 | 2.6 | 7.0 | 0.00 | 0.00 | 0.00 | 27 | 1007.7 |
| 20260505225522 | 80 | 303 | 4.3 | 7.0 | 0.00 | 0.00 | 0.00 | 27 | 1007.7 |
| 20260505225022 | 81 | 304 | 3.5 | 7.0 | 0.00 | 0.00 | 0.00 | 26 | 1007.7 |
| 20260505224527 | 81 | 316 | 2.6 | 7.0 | 0.00 | 0.00 | 0.00 | 27 | 1007.7 |
| 20260505224021 | 81 | 326 | 4.3 | 7.8 | 0.00 | 0.00 | 0.00 | 26 | 1007.6 |
| 20260505223520 | 81 | 305 | 4.3 | 7.8 | 0.00 | 0.00 | 0.00 | 26 | 1007.6 |
| 20260505223020 | 81 | 302 | 4.3 | 7.0 | 0.00 | 0.00 | 0.00 | 26 | 1007.7 |
| 20260505222519 | 81 | 307 | 3.5 | 7.8 | 0.00 | 0.00 | 0.00 | 27 | 1007.9 |
| 20260505222019 | 81 | 315 | 5.2 | 7.8 | 0.00 | 0.00 | 0.00 | 27 | 1007.8 |
| 20260505221519 | 81 | 305 | 1.7 | 7.0 | 0.00 | 0.00 | 0.00 | 28 | 1007.7 |
| 20260505221018 | 81 | 318 | 2.6 | 8.7 | 0.00 | 0.00 | 0.00 | 28 | 1007.8 |
| 20260505220518 | 81 | 307 | 4.3 | 8.7 | 0.00 | 0.00 | 0.00 | 27 | 1007.7 |
| 20260505220019 | 81 | 307 | 2.6 | 8.7 | 0.00 | 0.00 | 0.00 | 27 | 1007.6 |
| 20260505215518 | 82 | 294 | 4.3 | 8.7 | 0.00 | 0.00 | 0.00 | 27 | 1007.5 |
| 20260505215018 | 82 | 333 | 3.5 | 7.8 | 0.00 | 0.00 | 0.00 | 27 | 1007.5 |
| 20260505214518 | 82 | 314 | 2.6 | 7.8 | 0.00 | 0.00 | 0.00 | 27 | 1007.6 |
| 20260505214018 | 82 | 320 | 2.6 | 6.1 | 0.00 | 0.00 | 0.00 | 27 | 1007.4 |
| 20260505213517 | 82 | 295 | 3.5 | 9.6 | 0.00 | 0.00 | 0.00 | 27 | 1007.5 |
| 20260505213019 | 82 | 306 | 3.5 | 9.6 | 0.00 | 0.00 | 0.00 | 27 | 1007.4 |
| 20260505212520 | 82 | 299 | 3.5 | 8.7 | 0.00 | 0.00 | 0.00 | 27 | 1007.5 |
| 20260505212016 | 82 | 305 | 2.6 | 9.6 | 0.00 | 0.00 | 0.00 | 27 | 1007.5 |
| 20260505211533 | 82 | 313 | 5.2 | 9.6 | 0.00 | 0.00 | 0.00 | 26 | 1007.5 |
| 20260505211016 | 82 | 305 | 5.2 | 9.6 | 0.00 | 0.00 | 0.00 | 27 | 1007.5 |
| 20260505210516 | 83 | 316 | 3.5 | 7.8 | 0.00 | 0.00 | 0.00 | 27 | 1007.5 |
| 20260505210016 | 82 | 309 | 3.5 | 7.8 | 0.00 | 0.00 | 0.00 | 26 | 1007.6 |
| 20260505205517 | 82 | 295 | 4.3 | 8.7 | 0.00 | 0.00 | 0.00 | 26 | 1007.5 |
| 20260505205015 | 82 | 313 | 4.3 | 8.7 | 0.00 | 0.00 | 0.00 | 26 | 1007.5 |
| 20260505204514 | 83 | 305 | 3.5 | 8.7 | 0.00 | 0.00 | 0.00 | 27 | 1007.5 |
| 20260505204014 | 83 | 345 | 2.6 | 7.8 | 0.00 | 0.00 | 0.00 | 26 | 1007.5 |
| 20260505203514 | 83 | 296 | 4.3 | 7.0 | 0.00 | 0.00 | 0.00 | 26 | 1007.4 |
| 20260505203014 | 83 | 289 | 3.5 | 9.6 | 0.00 | 0.00 | 0.00 | 25 | 1007.5 |
| 20260505202514 | 83 | 329 | 5.2 | 9.6 | 0.00 | 0.00 | 0.00 | 25 | 1007.5 |
| 20260505202013 | 83 | 299 | 3.5 | 7.8 | 0.00 | 0.00 | 0.00 | 24 | 1007.4 |
| 20260505201512 | 83 | 314 | 3.5 | 10.4 | 0.00 | 0.00 | 0.00 | 25 | 1007.5 |
| 20260505201015 | 83 | 322 | 4.3 | 9.6 | 0.00 | 0.00 | 0.00 | 24 | 1007.5 |
| 20260505200512 | 84 | 302 | 4.3 | 8.7 | 0.00 | 0.00 | 0.00 | 24 | 1007.5 |
| 20260505200011 | 84 | 316 | 3.5 | 10.4 | 0.00 | 0.00 | 0.00 | 24 | 1007.6 |
| 20260505195510 | 84 | 302 | 7.0 | 10.4 | 0.00 | 0.00 | 0.00 | 24 | 1007.6 |
| 20260505195009 | 83 | 300 | 5.2 | 11.3 | 0.00 | 0.00 | 0.00 | 25 | 1007.6 |
| 20260505194509 | 84 | 297 | 6.1 | 11.3 | 0.00 | 0.00 | 0.00 | 25 | 1007.7 |
| 20260505194010 | 84 | 312 | 4.3 | 8.7 | 0.00 | 0.00 | 0.00 | 25 | 1007.8 |
| 20260505193508 | 83 | 273 | 4.3 | 10.4 | 0.00 | 0.00 | 0.00 | 25 | 1007.8 |
| 20260505193007 | 84 | 326 | 4.3 | 7.8 | 0.00 | 0.00 | 0.00 | 26 | 1007.9 |
| 20260505192506 | 84 | 298 | 3.5 | 7.0 | 0.00 | 0.00 | 0.00 | 26 | 1007.9 |
| 20260505192005 | 85 | 317 | 3.5 | 6.1 | 0.00 | 0.00 | 0.00 | 26 | 1007.9 |
| 20260505191504 | 84 | 311 | 2.6 | 8.7 | 0.00 | 0.00 | 0.00 | 27 | 1008.0 |
| 20260505191002 | 83 | 297 | 2.6 | 8.7 | 0.00 | 0.00 | 0.00 | 28 | 1008.2 |
| 20260505190502 | 84 | 305 | 3.5 | 7.0 | 0.00 | 0.00 | 0.00 | 28 | 1008.2 |
| 20260505190103 | 83 | 314 | 2.6 | 7.8 | 0.00 | 0.00 | 0.00 | 28 | 1008.4 |
| 20260505185600 | 84 | 286 | 3.5 | 7.8 | 0.00 | 0.00 | 0.00 | 28 | 1008.4 |
| 20260505185059 | 84 | 315 | 2.6 | 8.7 | 0.00 | 0.00 | 0.00 | 29 | 1008.4 |
| 20260505184559 | 84 | 295 | 4.3 | 8.7 | 0.00 | 0.00 | 0.00 | 28 | 1008.5 |
| 20260505184057 | 83 | 300 | 1.7 | 7.8 | 0.00 | 0.00 | 0.00 | 30 | 1008.6 |
| 20260505183556 | 83 | 318 | 3.5 | 9.6 | 0.00 | 0.00 | 0.00 | 30 | 1008.6 |
| 20260505183055 | 83 | 288 | 2.6 | 9.6 | 0.00 | 0.00 | 0.00 | 29 | 1008.7 |
| 20260505182557 | 83 | 308 | 2.6 | 8.7 | 0.00 | 0.00 | 0.00 | 31 | 1008.6 |
| 20260505182056 | 83 | 302 | 2.6 | 8.7 | 0.00 | 0.00 | 0.00 | 31 | 1008.7 |
| 20260505181553 | 83 | 290 | 4.3 | 7.8 | 0.00 | 0.00 | 0.00 | 30 | 1008.8 |
| 20260505181052 | 83 | 292 | 2.6 | 5.2 | 0.00 | 0.00 | 0.00 | 31 | 1009.0 |
| 20260505180551 | 84 | 319 | 2.6 | 6.1 | 0.00 | 0.00 | 0.00 | 30 | 1009.1 |
| 20260505180055 | 83 | 290 | 0.9 | 6.1 | 0.00 | 0.00 | 0.00 | 33 | 1009.1 |
| 20260505175549 | 83 | 285 | 1.7 | 7.0 | 0.00 | 0.00 | 0.00 | 31 | 1009.2 |
| 20260505175050 | 82 | 293 | 3.5 | 7.0 | 0.00 | 0.00 | 0.00 | 31 | 1009.2 |
| 20260505174548 | 83 | 298 | 3.5 | 7.0 | 0.00 | 0.00 | 0.00 | 31 | 1009.4 |
| 20260505174047 | 83 | 321 | 3.5 | 7.0 | 0.00 | 0.00 | 0.00 | 30 | 1009.4 |
| 20260505173547 | 83 | 305 | 1.7 | 5.2 | 0.00 | 0.00 | 0.00 | 31 | 1009.4 |
| 20260505173046 | 83 | 235 | 0.9 | 7.0 | 0.00 | 0.00 | 0.00 | 32 | 1009.3 |
| 20260505172549 | 82 | 60 | 0.9 | 7.0 | 0.00 | 0.00 | 0.00 | 33 | 1009.4 |
| 20260505172045 | 82 | 305 | 3.5 | 6.1 | 0.00 | 0.00 | 0.00 | 31 | 1009.5 |
| 20260505171545 | 82 | 305 | 1.7 | 4.3 | 0.00 | 0.00 | 0.00 | 32 | 1009.6 |